Time;durP1;ratioP1;P1;durP2;ratioP2;P2;SDS_P1;SDS_P2;PMS_P1;PMS_P2;Temp;Humidity;BMP_temperature;BMP_pressure;BME280_temperature;BME280_humidity;BME280_pressure;Samples;Min_cycle;Max_cycle;Signal;HPM_P1;HPM_P2
2021/12/06 00:01:51;;;;;;;9.90;4.90;;;2.90;98.00;;;;;;5059186;28;20322;-84
2021/12/06 00:04:20;;;;;;;8.07;4.53;;;3.10;98.00;;;;;;5031979;28;20207;-85
2021/12/06 00:06:53;;;;;;;8.37;4.93;;;3.00;96.70;;;;;;5041401;28;20225;-84
2021/12/06 00:09:22;;;;;;;11.23;5.47;;;3.00;96.40;;;;;;5054670;28;20579;-84
2021/12/06 00:11:57;;;;;;;11.43;5.80;;;3.00;97.40;;;;;;5036241;28;20608;-84
2021/12/06 00:14:27;;;;;;;9.97;5.50;;;3.10;96.50;;;;;;5054597;28;20550;-83
2021/12/06 00:16:56;;;;;;;11.13;5.37;;;2.90;96.40;;;;;;5028632;28;20654;-85
2021/12/06 00:19:23;;;;;;;8.90;5.23;;;3.00;97.30;;;;;;5035384;28;20206;-82
2021/12/06 00:21:51;;;;;;;8.30;4.90;;;3.00;96.70;;;;;;5033199;28;20228;-82
2021/12/06 00:24:18;;;;;;;9.03;4.87;;;3.00;96.80;;;;;;5044156;28;20209;-82
2021/12/06 00:26:46;;;;;;;11.50;5.60;;;3.10;97.10;;;;;;5043005;28;20228;-82
2021/12/06 00:29:13;;;;;;;10.83;6.67;;;3.20;96.30;;;;;;5042789;28;20197;-82
2021/12/06 00:31:41;;;;;;;11.07;6.40;;;3.20;96.80;;;;;;5044352;28;20222;-83
2021/12/06 00:34:14;;;;;;;10.97;5.83;;;3.20;96.10;;;;;;5036942;28;20225;-84
2021/12/06 00:36:50;;;;;;;10.10;6.00;;;3.10;95.60;;;;;;5025844;28;20231;-83
2021/12/06 00:39:17;;;;;;;12.50;6.00;;;3.10;96.90;;;;;;5042270;28;20186;-85
2021/12/06 00:42:11;;;;;;;7.27;4.50;;;3.00;95.50;;;;;;5033819;28;20234;-84
2021/12/06 00:44:38;;;;;;;5.87;3.50;;;3.00;96.50;;;;;;5034272;28;20689;-83
2021/12/06 00:47:06;;;;;;;6.67;3.90;;;3.10;96.50;;;;;;5033625;28;20697;-83
2021/12/06 00:49:35;;;;;;;5.23;3.30;;;3.20;96.60;;;;;;5035567;28;20241;-84
2021/12/06 00:52:01;;;;;;;7.07;3.73;;;3.10;95.40;;;;;;5033674;28;20226;-84
2021/12/06 00:54:34;;;;;;;6.43;3.63;;;3.00;95.40;;;;;;5049751;28;20236;-83
2021/12/06 00:57:01;;;;;;;5.50;3.50;;;2.80;95.40;;;;;;5045085;28;20223;-84
2021/12/06 00:59:29;;;;;;;6.10;3.03;;;2.50;95.80;;;;;;5047259;28;20605;-85
2021/12/06 01:01:56;;;;;;;6.90;3.03;;;2.60;96.60;;;;;;5029260;28;20647;-84
2021/12/06 01:04:23;;;;;;;4.20;3.07;;;2.40;96.50;;;;;;5033774;28;20209;-84
2021/12/06 01:06:51;;;;;;;5.53;3.60;;;2.30;96.90;;;;;;5033368;28;20246;-84
2021/12/06 01:09:18;;;;;;;5.77;3.50;;;2.40;97.50;;;;;;5033655;28;20210;-85
2021/12/06 01:11:45;;;;;;;3.87;2.90;;;2.50;97.20;;;;;;5029293;28;20578;-84
2021/12/06 01:14:12;;;;;;;3.60;3.10;;;2.60;97.20;;;;;;5033976;28;20232;-83
2021/12/06 01:16:40;;;;;;;5.27;2.87;;;2.60;96.80;;;;;;5032921;28;20329;-84
2021/12/06 01:19:07;;;;;;;3.07;2.57;;;2.70;97.30;;;;;;5033809;28;20198;-83
2021/12/06 01:21:44;;;;;;;5.33;2.97;;;2.90;97.00;;;;;;5033211;28;20230;-83
2021/12/06 01:24:16;;;;;;;5.07;2.80;;;2.80;95.70;;;;;;5040274;28;20201;-85
2021/12/06 01:27:03;;;;;;;4.37;2.87;;;2.60;95.70;;;;;;5053008;28;20607;-83
2021/12/06 01:40:42;;;;;;;3.80;2.63;;;2.60;97.20;;;;;;5025425;28;20244;-83
2021/12/06 01:43:09;;;;;;;6.80;2.80;;;2.60;97.00;;;;;;5045735;28;20330;-82
2021/12/06 01:45:36;;;;;;;6.60;3.03;;;2.50;96.70;;;;;;5043883;28;20199;-84
2021/12/06 01:48:03;;;;;;;4.73;3.00;;;2.40;96.70;;;;;;5051407;28;20226;-86
2021/12/06 01:50:30;;;;;;;4.67;3.20;;;2.40;97.10;;;;;;5033984;28;20274;-83
2021/12/06 01:53:03;;;;;;;4.77;3.23;;;2.60;97.70;;;;;;5043384;28;20231;-84
2021/12/06 01:55:33;;;;;;;5.77;3.77;;;2.60;97.00;;;;;;5053495;28;20209;-83
2021/12/06 01:58:02;;;;;;;8.43;5.73;;;2.60;96.70;;;;;;5052858;28;20234;-84
2021/12/06 02:00:33;;;;;;;9.97;6.30;;;2.60;96.60;;;;;;5048757;28;20289;-83
2021/12/06 02:03:00;;;;;;;8.83;5.63;;;2.50;97.40;;;;;;5022085;28;20241;-84
2021/12/06 02:05:28;;;;;;;10.80;6.33;;;2.70;97.30;;;;;;5033429;28;20202;-83
2021/12/06 02:07:55;;;;;;;9.40;6.80;;;2.90;97.40;;;;;;5032799;28;20669;-84
2021/12/06 02:10:24;;;;;;;12.17;8.00;;;3.00;97.30;;;;;;5046747;28;20202;-84
2021/12/06 02:12:53;;;;;;;11.40;8.40;;;3.10;96.60;;;;;;5054692;28;20217;-84
2021/12/06 02:15:34;;;;;;;14.00;10.20;;;3.10;96.20;;;;;;5051670;28;20230;-83
2021/12/06 02:18:08;;;;;;;14.97;10.17;;;2.80;95.90;;;;;;5033833;28;20195;-83
2021/12/06 02:20:42;;;;;;;14.47;10.17;;;2.70;96.30;;;;;;5037057;28;20647;-84
2021/12/06 02:23:11;;;;;;;12.33;9.50;;;2.70;96.60;;;;;;5036876;28;20665;-83
2021/12/06 02:25:38;;;;;;;14.43;10.80;;;2.80;97.10;;;;;;5036636;28;20277;-83
2021/12/06 02:28:05;;;;;;;14.70;10.27;;;2.80;96.70;;;;;;5035851;28;20230;-84
2021/12/06 02:30:32;;;;;;;15.00;10.03;;;3.00;97.30;;;;;;5036855;28;20205;-83
2021/12/06 02:33:00;;;;;;;17.17;10.30;;;3.10;96.50;;;;;;5036465;28;20226;-83
2021/12/06 02:35:27;;;;;;;14.60;10.70;;;3.30;96.70;;;;;;5036936;28;20232;-83
2021/12/06 02:37:56;;;;;;;13.37;9.93;;;3.40;96.10;;;;;;5036808;28;20241;-83
2021/12/06 02:40:26;;;;;;;18.23;11.03;;;3.40;95.60;;;;;;5036752;28;20260;-83
2021/12/06 05:10:59;;;;;;;17.13;12.40;;;3.10;96.60;;;;;;5031867;28;20633;-83
2021/12/06 05:13:28;;;;;;;17.90;11.87;;;3.10;96.70;;;;;;5013916;28;20218;-83
2021/12/06 05:15:55;;;;;;;18.70;12.40;;;3.40;97.40;;;;;;5026093;28;20592;-84
2021/12/06 05:18:22;;;;;;;15.30;11.33;;;3.70;96.80;;;;;;5042760;28;20222;-84
2021/12/06 05:20:50;;;;;;;16.17;11.87;;;3.70;96.10;;;;;;5034264;28;20183;-83
2021/12/06 05:23:20;;;;;;;18.07;12.33;;;3.80;96.20;;;;;;5033967;28;20292;-83
2021/12/06 05:25:47;;;;;;;19.10;12.37;;;3.80;95.30;;;;;;5034383;28;20194;-83
2021/12/06 05:28:14;;;;;;;21.17;13.40;;;3.80;95.90;;;;;;5033747;28;20237;-83
2021/12/06 05:30:48;;;;;;;16.47;12.57;;;3.80;96.00;;;;;;5034800;28;20193;-83
2021/12/06 05:33:28;;;;;;;17.97;12.57;;;3.80;95.90;;;;;;5030766;28;20651;-87
2021/12/06 05:35:59;;;;;;;19.67;13.27;;;3.70;95.40;;;;;;5023557;28;20214;-85
2021/12/06 05:38:28;;;;;;;20.90;13.43;;;3.40;95.20;;;;;;5029400;28;20222;-85
2021/12/06 05:40:56;;;;;;;18.83;13.10;;;3.30;95.60;;;;;;5027518;28;20239;-85
2021/12/06 05:43:24;;;;;;;18.33;13.53;;;3.30;97.30;;;;;;5021579;28;20234;-86
2021/12/06 05:45:53;;;;;;;19.77;13.23;;;3.40;97.60;;;;;;5019746;28;20202;-87
2021/12/06 05:48:20;;;;;;;19.80;13.07;;;3.40;96.90;;;;;;5025577;28;20607;-86
2021/12/06 05:50:49;;;;;;;18.70;12.87;;;3.30;96.60;;;;;;5024344;28;20611;-85
2021/12/06 05:53:16;;;;;;;17.77;12.40;;;3.50;98.60;;;;;;5029067;28;20786;-87
2021/12/06 05:55:44;;;;;;;18.03;12.93;;;3.50;97.40;;;;;;5032727;28;20309;-86
2021/12/06 05:58:13;;;;;;;19.70;12.43;;;3.60;96.60;;;;;;5044504;28;20218;-86
2021/12/06 06:00:42;;;;;;;20.67;12.57;;;3.60;96.60;;;;;;5029738;28;20194;-86
2021/12/06 06:03:12;;;;;;;17.93;12.47;;;3.60;97.20;;;;;;5038690;28;20304;-86
2021/12/06 06:05:39;;;;;;;17.97;12.50;;;3.80;97.40;;;;;;5037830;28;20199;-84
2021/12/06 06:08:07;;;;;;;17.20;12.17;;;3.70;95.80;;;;;;5041840;28;20230;-87
2021/12/06 06:10:34;;;;;;;18.93;12.37;;;3.30;95.00;;;;;;5046692;28;20642;-86
2021/12/06 06:13:02;;;;;;;18.10;12.00;;;3.30;96.70;;;;;;5038674;28;20686;-86
2021/12/06 06:15:29;;;;;;;16.70;11.50;;;3.20;97.00;;;;;;5035192;28;20552;-85
2021/12/06 06:18:00;;;;;;;17.03;12.23;;;3.20;97.00;;;;;;5042812;28;20234;-84
2021/12/06 06:20:31;;;;;;;16.30;11.67;;;3.00;96.00;;;;;;5026101;28;20658;-83
2021/12/06 06:22:59;;;;;;;17.57;12.53;;;2.90;96.60;;;;;;5036709;28;20223;-84
2021/12/06 06:25:27;;;;;;;16.80;12.43;;;2.90;97.70;;;;;;5036309;28;20202;-83
2021/12/06 06:27:54;;;;;;;20.20;12.07;;;3.00;97.20;;;;;;5042048;28;20239;-83
2021/12/06 06:30:21;;;;;;;16.77;12.30;;;2.80;96.40;;;;;;5043024;28;20201;-83
2021/12/06 06:32:50;;;;;;;17.87;12.13;;;2.80;96.70;;;;;;5041235;28;20232;-84
2021/12/06 06:35:18;;;;;;;17.20;11.80;;;2.70;96.80;;;;;;5037744;28;20312;-84
2021/12/06 06:37:47;;;;;;;17.97;11.57;;;2.90;97.40;;;;;;5032884;28;20242;-84
2021/12/06 06:40:14;;;;;;;20.63;12.70;;;3.00;97.10;;;;;;5038426;28;20199;-83
2021/12/06 06:42:41;;;;;;;19.70;12.53;;;3.00;96.80;;;;;;5020494;28;20231;-84
2021/12/06 06:45:15;;;;;;;18.93;12.90;;;3.00;97.60;;;;;;5030012;28;20218;-83
2021/12/06 06:47:43;;;;;;;19.53;12.97;;;2.80;96.30;;;;;;5036319;28;20589;-83
2021/12/06 06:50:10;;;;;;;17.67;12.20;;;2.80;97.10;;;;;;5037548;28;20205;-84
2021/12/06 06:52:38;;;;;;;20.60;13.27;;;2.80;97.20;;;;;;5024692;28;20682;-86
2021/12/06 06:55:09;;;;;;;19.03;12.60;;;2.90;97.20;;;;;;5017851;28;20211;-84
2021/12/06 06:57:36;;;;;;;20.50;13.73;;;2.80;96.90;;;;;;5023367;28;20800;-85
2021/12/06 07:00:06;;;;;;;19.90;13.13;;;2.70;97.20;;;;;;5024653;28;20654;-84
2021/12/06 07:02:33;;;;;;;28.30;16.80;;;2.60;96.90;;;;;;5034150;28;20700;-83
2021/12/06 07:05:01;;;;;;;21.27;13.67;;;2.90;98.60;;;;;;5026176;28;20199;-81
2021/12/06 07:07:27;;;;;;;24.20;15.03;;;2.90;97.70;;;;;;5039642;28;20233;-84
2021/12/06 07:10:10;;;;;;;59.43;27.33;;;2.70;97.20;;;;;;5038754;28;20202;-83
2021/12/06 07:12:44;;;;;;;31.77;16.73;;;3.20;98.80;;;;;;5033032;28;20234;-82
2021/12/06 07:15:15;;;;;;;28.27;16.10;;;3.20;97.30;;;;;;5033671;28;20220;-83
2021/12/06 07:17:44;;;;;;;24.17;13.77;;;3.30;97.30;;;;;;5036526;28;20264;-85
2021/12/06 07:20:12;;;;;;;22.63;13.90;;;3.30;96.70;;;;;;5035363;28;20203;-85
2021/12/06 07:22:40;;;;;;;21.73;14.20;;;3.20;95.80;;;;;;5032182;28;20226;-82
2021/12/06 08:56:06;;;;;;;18.97;12.40;;;4.40;93.90;;;;;;5026790;28;20209;-85
2021/12/06 08:58:36;;;;;;;18.67;12.00;;;4.40;93.60;;;;;;5050376;28;20282;-88
2021/12/06 09:01:04;;;;;;;20.13;13.27;;;4.50;94.00;;;;;;5048767;28;20193;-85
2021/12/06 09:03:31;;;;;;;17.63;11.87;;;4.60;92.50;;;;;;5034914;28;20649;-86
2021/12/06 09:06:01;;;;;;;20.20;13.07;;;4.30;92.80;;;;;;5016091;28;20203;-88
2021/12/06 09:08:43;;;;;;;18.47;12.87;;;4.00;92.60;;;;;;5016013;28;20255;-89
2021/12/06 09:11:36;;;;;;;18.40;12.63;;;4.00;93.60;;;;;;5016587;28;20258;-89
2021/12/06 09:14:33;;;;;;;18.03;11.93;;;4.00;94.00;;;;;;5016123;28;20202;-89
2021/12/06 09:17:00;;;;;;;20.00;12.80;;;4.30;93.70;;;;;;5041363;28;20559;-84
2021/12/06 09:19:27;;;;;;;17.73;12.03;;;4.30;93.60;;;;;;5056337;28;20284;-84
2021/12/06 09:21:55;;;;;;;21.63;12.60;;;4.30;93.10;;;;;;5058197;28;20289;-83
2021/12/06 09:24:23;;;;;;;17.40;12.40;;;4.50;94.80;;;;;;5035016;28;20199;-89
2021/12/06 09:26:51;;;;;;;19.43;12.07;;;4.40;92.60;;;;;;5037117;28;20221;-88
2021/12/06 09:29:19;;;;;;;17.80;12.87;;;4.30;91.90;;;;;;5028056;28;20196;-89
2021/12/06 09:31:47;;;;;;;18.47;11.67;;;4.10;92.20;;;;;;5034574;28;20222;-90
2021/12/06 09:34:14;;;;;;;15.87;11.17;;;4.30;93.90;;;;;;5029338;28;20238;-89
2021/12/06 09:36:42;;;;;;;15.27;10.93;;;4.20;92.20;;;;;;5043489;28;20686;-86
2021/12/06 09:42:32;;;;;;;17.70;11.17;;;4.50;92.90;;;;;;5034624;28;20273;-85
2021/12/06 09:44:59;;;;;;;19.00;11.57;;;4.50;93.30;;;;;;5337589;22;20256;-85
2021/12/06 09:47:28;;;;;;;18.57;11.47;;;4.60;92.40;;;;;;5079426;28;20584;-91
2021/12/06 09:49:55;;;;;;;16.97;11.23;;;4.60;93.80;;;;;;5078069;28;20257;-86
2021/12/06 09:52:22;;;;;;;16.00;11.27;;;4.80;93.30;;;;;;5077912;28;20225;-87
2021/12/06 09:54:50;;;;;;;14.73;11.20;;;4.90;91.90;;;;;;5075811;28;20198;-87
2021/12/06 09:57:19;;;;;;;18.43;11.13;;;4.90;92.10;;;;;;5083048;28;20225;-85
2021/12/06 09:59:47;;;;;;;17.63;10.77;;;4.90;91.60;;;;;;5075315;28;20676;-86
2021/12/06 10:02:17;;;;;;;14.27;10.43;;;4.80;91.10;;;;;;5079527;28;20629;-87
2021/12/06 10:04:50;;;;;;;16.33;10.27;;;4.90;91.60;;;;;;5077071;28;20200;-86
2021/12/06 10:07:18;;;;;;;15.87;11.00;;;4.80;91.50;;;;;;5081338;28;20238;-89
2021/12/06 10:09:46;;;;;;;15.57;10.70;;;4.80;92.10;;;;;;5075550;28;20205;-89
2021/12/06 10:12:16;;;;;;;18.57;12.73;;;4.50;91.90;;;;;;5067431;28;20217;-89
2021/12/06 10:14:43;;;;;;;19.30;11.53;;;4.60;92.30;;;;;;5073850;28;20721;-87
2021/12/06 10:17:15;;;;;;;15.37;10.73;;;4.70;91.00;;;;;;5072197;28;20251;-86
2021/12/06 10:19:42;;;;;;;15.87;10.77;;;4.70;91.10;;;;;;5073638;28;20201;-86
2021/12/06 10:22:09;;;;;;;14.50;9.97;;;4.90;92.00;;;;;;5079364;28;20574;-83
2021/12/06 10:24:36;;;;;;;16.67;10.30;;;5.00;91.20;;;;;;5078830;28;20204;-87
2021/12/06 10:27:08;;;;;;;17.07;10.67;;;4.70;90.30;;;;;;5074507;28;20213;-86
2021/12/06 10:29:39;;;;;;;15.17;10.63;;;4.60;91.30;;;;;;5077104;28;20215;-85
2021/12/06 10:32:15;;;;;;;20.70;12.20;;;4.50;91.40;;;;;;5074138;28;20378;-85
2021/12/06 10:34:49;;;;;;;17.57;11.70;;;4.50;91.50;;;;;;5076180;28;20232;-83
2021/12/06 10:37:33;;;;;;;16.80;11.70;;;4.40;93.00;;;;;;5077321;28;20240;-82
2021/12/06 10:40:00;;;;;;;18.17;11.93;;;4.40;92.30;;;;;;5069749;28;20200;-85
2021/12/06 10:42:30;;;;;;;18.33;12.10;;;4.40;92.30;;;;;;5076584;28;20228;-86
2021/12/06 10:45:02;;;;;;;19.93;11.70;;;4.10;92.20;;;;;;5077973;28;20231;-87
2021/12/06 10:47:30;;;;;;;19.03;12.73;;;4.30;93.90;;;;;;5080703;28;20219;-85
2021/12/06 10:50:12;;;;;;;18.57;11.93;;;4.30;92.70;;;;;;5076921;28;20197;-85
2021/12/06 10:52:50;;;;;;;17.17;11.90;;;4.00;92.70;;;;;;5083644;28;20221;-85
2021/12/06 10:55:18;;;;;;;18.73;11.60;;;4.20;94.20;;;;;;5077705;28;20204;-83
2021/12/06 10:57:54;;;;;;;18.67;12.17;;;4.30;93.40;;;;;;5077487;28;20232;-82
2021/12/06 11:00:48;;;;;;;17.47;11.03;;;4.20;92.10;;;;;;5076709;28;20201;-83
2021/12/06 11:03:35;;;;;;;16.63;10.90;;;4.30;92.50;;;;;;5077311;28;20194;-83
2021/12/06 11:06:07;;;;;;;15.87;11.13;;;4.00;91.60;;;;;;5079308;28;20212;-85
2021/12/06 11:08:50;;;;;;;16.87;11.10;;;4.10;93.40;;;;;;5076384;28;20228;-83
2021/12/06 11:11:21;;;;;;;19.53;11.57;;;3.90;92.50;;;;;;5074264;28;20226;-84
2021/12/06 11:13:51;;;;;;;17.93;11.43;;;3.90;93.00;;;;;;5081736;28;20200;-86
2021/12/06 11:17:04;;;;;;;18.43;11.90;;;3.80;92.80;;;;;;5086299;28;20236;-85
2021/12/06 11:19:33;;;;;;;17.50;11.30;;;3.60;92.70;;;;;;5079841;28;20215;-83
2021/12/06 11:22:22;;;;;;;16.60;11.57;;;3.80;94.80;;;;;;5080030;28;20664;-83
2021/12/06 11:24:52;;;;;;;16.33;11.03;;;3.70;93.40;;;;;;5081428;28;20197;-83
2021/12/06 11:27:22;;;;;;;14.03;10.50;;;3.60;93.70;;;;;;5087679;28;20238;-87
2021/12/06 11:29:51;;;;;;;18.00;11.63;;;4.00;94.00;;;;;;5092907;28;20200;-85
2021/12/06 11:32:28;;;;;;;16.03;11.20;;;4.00;93.70;;;;;;5077690;28;20217;-86
2021/12/06 11:34:58;;;;;;;17.90;10.50;;;3.90;92.70;;;;;;5069272;28;20201;-85
2021/12/06 11:37:27;;;;;;;15.63;10.90;;;3.80;93.00;;;;;;5056798;28;20245;-86
2021/12/06 11:40:10;;;;;;;15.50;10.43;;;3.70;93.10;;;;;;5077237;28;20194;-84
2021/12/06 11:42:49;;;;;;;15.17;10.83;;;3.60;93.50;;;;;;5060659;28;20983;-85
2021/12/06 11:45:30;;;;;;;14.03;10.10;;;3.70;93.00;;;;;;5075416;28;20223;-87
2021/12/06 11:48:01;;;;;;;16.63;10.67;;;3.80;93.20;;;;;;5074508;28;20227;-88
2021/12/06 11:50:31;;;;;;;16.00;11.43;;;3.80;93.10;;;;;;5075069;28;20251;-89
2021/12/06 11:53:04;;;;;;;14.80;10.10;;;3.80;93.00;;;;;;5078538;28;20654;-88
2021/12/06 11:55:31;;;;;;;14.27;11.20;;;3.90;94.60;;;;;;5066766;28;20211;-87
2021/12/06 11:57:59;;;;;;;14.83;10.43;;;4.30;93.90;;;;;;5073111;28;20735;-88
2021/12/06 12:00:27;;;;;;;15.70;10.37;;;4.40;93.50;;;;;;5074126;28;20197;-87
2021/12/06 12:02:55;;;;;;;15.83;10.10;;;4.60;93.50;;;;;;5069044;28;20232;-85
2021/12/06 12:05:27;;;;;;;13.80;10.27;;;4.50;92.90;;;;;;5074865;28;20201;-87
2021/12/06 12:07:59;;;;;;;14.80;10.53;;;4.70;92.30;;;;;;5076505;28;20193;-88
2021/12/06 12:10:41;;;;;;;15.40;11.40;;;4.80;92.00;;;;;;5061809;28;20739;-88
2021/12/06 12:13:10;;;;;;;14.40;9.87;;;4.70;91.50;;;;;;5072413;28;20202;-87
2021/12/06 12:15:38;;;;;;;13.63;9.83;;;4.40;90.90;;;;;;5073119;28;20201;-86
2021/12/06 12:18:06;;;;;;;14.87;10.70;;;4.50;92.00;;;;;;5064484;28;20227;-87
2021/12/06 12:20:35;;;;;;;15.30;10.10;;;4.60;92.00;;;;;;5072203;28;20208;-88
2021/12/06 12:23:08;;;;;;;14.80;10.93;;;4.70;92.10;;;;;;5072983;28;20238;-88
2021/12/06 12:25:42;;;;;;;17.93;12.07;;;4.80;92.50;;;;;;5071909;28;20201;-90
2021/12/06 12:28:15;;;;;;;16.53;11.77;;;4.90;91.40;;;;;;5081385;28;20205;-90
2021/12/06 12:30:42;;;;;;;18.83;12.73;;;4.60;92.00;;;;;;5074661;28;20284;-85
2021/12/06 12:33:12;;;;;;;18.10;12.47;;;4.30;91.40;;;;;;5071344;28;20300;-83
2021/12/06 12:35:42;;;;;;;18.30;12.17;;;4.30;92.80;;;;;;5068449;28;20244;-86
2021/12/06 12:38:11;;;;;;;14.53;10.87;;;4.30;92.80;;;;;;5078852;28;20216;-88
2021/12/06 12:40:42;;;;;;;16.73;11.90;;;4.40;93.20;;;;;;5075784;28;20243;-87
2021/12/06 12:43:13;;;;;;;14.30;10.77;;;4.40;92.30;;;;;;5081342;28;20231;-84
2021/12/06 12:45:43;;;;;;;14.23;10.77;;;4.50;92.30;;;;;;5073710;28;20696;-85
2021/12/06 12:48:11;;;;;;;15.73;11.13;;;4.70;92.70;;;;;;5072447;28;20193;-84
2021/12/06 12:50:38;;;;;;;14.27;11.23;;;4.60;91.10;;;;;;5082683;28;20233;-89
2021/12/06 12:53:11;;;;;;;14.63;11.47;;;4.40;91.40;;;;;;5077318;28;20197;-89
2021/12/06 12:55:43;;;;;;;16.53;12.23;;;4.20;92.20;;;;;;5073692;28;20240;-91
2021/12/06 12:58:13;;;;;;;17.80;12.57;;;4.40;93.20;;;;;;5080032;28;20212;-90
2021/12/06 13:00:49;;;;;;;15.43;12.33;;;4.50;92.30;;;;;;5071328;28;20236;-89
2021/12/06 13:03:33;;;;;;;18.37;12.30;;;4.60;92.90;;;;;;5084190;28;20198;-90
2021/12/06 13:06:19;;;;;;;18.50;12.90;;;4.60;92.40;;;;;;5075630;28;20291;-88
2021/12/06 13:08:49;;;;;;;19.20;13.87;;;4.50;92.30;;;;;;5088941;28;20188;-88
2021/12/06 13:11:16;;;;;;;18.33;13.47;;;4.30;91.90;;;;;;5080009;28;20224;-88
2021/12/06 13:13:48;;;;;;;16.23;11.80;;;4.20;92.90;;;;;;5085179;28;20203;-90
2021/12/06 13:16:41;;;;;;;18.03;13.10;;;4.00;93.00;;;;;;5077152;28;20492;-89
2021/12/06 13:19:15;;;;;;;17.03;12.23;;;3.90;92.70;;;;;;5076662;28;20197;-89
2021/12/06 13:22:02;;;;;;;17.33;13.43;;;3.80;93.70;;;;;;5084183;28;20232;-89
2021/12/06 13:24:43;;;;;;;20.53;13.03;;;4.00;93.50;;;;;;5086985;28;20654;-89
2021/12/06 13:27:28;;;;;;;16.93;12.83;;;3.80;93.00;;;;;;5079764;28;20219;-89
2021/12/06 13:30:00;;;;;;;17.20;12.23;;;3.90;93.20;;;;;;5075733;28;20201;-89
2021/12/06 13:32:33;;;;;;;20.67;13.17;;;4.20;93.70;;;;;;5074509;28;20237;-88
2021/12/06 13:35:41;;;;;;;18.53;12.73;;;4.40;93.30;;;;;;5081714;28;20193;-90
2021/12/06 13:38:43;;;;;;;18.60;12.60;;;4.40;92.60;;;;;;5073648;28;20562;-90
2021/12/06 13:41:17;;;;;;;17.87;12.77;;;4.40;92.30;;;;;;5083391;28;20223;-91
2021/12/06 13:43:50;;;;;;;17.63;12.07;;;4.20;91.60;;;;;;5072176;28;20307;-88
2021/12/06 13:46:27;;;;;;;19.10;13.00;;;4.00;92.60;;;;;;5075949;28;20225;-87
2021/12/06 13:48:56;;;;;;;17.77;12.80;;;4.00;92.40;;;;;;5065560;28;20193;-86
2021/12/06 13:51:30;;;;;;;21.90;14.33;;;3.90;93.00;;;;;;5079915;28;20276;-87
2021/12/06 13:54:00;;;;;;;23.63;15.50;;;3.90;93.10;;;;;;5080821;28;20197;-89
2021/12/06 13:56:45;;;;;;;19.30;13.47;;;3.90;92.70;;;;;;5088158;28;20233;-92
2021/12/06 13:59:17;;;;;;;22.00;14.57;;;3.90;94.20;;;;;;5079528;28;20189;-87
2021/12/06 14:01:46;;;;;;;17.87;13.10;;;4.00;93.50;;;;;;5077541;28;20251;-87
2021/12/06 14:04:16;;;;;;;21.27;13.77;;;4.20;93.80;;;;;;5086436;28;20198;-88
2021/12/06 14:06:45;;;;;;;21.33;14.37;;;4.10;92.90;;;;;;5078836;28;20298;-87
2021/12/06 14:09:13;;;;;;;22.03;13.33;;;4.00;92.60;;;;;;5076060;28;20201;-89
2021/12/06 14:11:41;;;;;;;19.27;12.47;;;3.90;93.20;;;;;;5076242;28;20695;-90
2021/12/06 14:14:12;;;;;;;21.40;13.70;;;4.00;93.90;;;;;;5087008;28;20197;-89
2021/12/06 14:16:43;;;;;;;20.63;13.63;;;4.30;93.80;;;;;;5087891;28;20232;-89
2021/12/06 14:19:12;;;;;;;17.50;12.43;;;4.30;92.70;;;;;;5084265;28;20192;-85
2021/12/06 14:21:43;;;;;;;19.83;13.10;;;4.30;93.20;;;;;;5079259;28;20525;-89
2021/12/06 14:24:11;;;;;;;18.70;12.57;;;4.30;92.20;;;;;;5076651;28;20251;-88
2021/12/06 14:26:41;;;;;;;17.73;12.03;;;4.30;92.70;;;;;;5072921;28;20221;-89
2021/12/06 14:29:15;;;;;;;19.97;13.20;;;4.40;93.00;;;;;;5094029;28;20223;-90
2021/12/06 14:31:43;;;;;;;19.60;11.87;;;4.50;92.30;;;;;;5079481;28;20769;-89
2021/12/06 14:34:11;;;;;;;20.93;13.03;;;4.70;92.60;;;;;;5077929;28;20189;-89
2021/12/06 14:36:38;;;;;;;18.77;12.13;;;4.70;92.30;;;;;;5080331;28;20232;-87
2021/12/06 14:39:11;;;;;;;18.60;11.77;;;4.80;91.80;;;;;;5075637;28;20208;-87
2021/12/06 14:41:50;;;;;;;19.97;13.73;;;4.90;93.10;;;;;;5077217;28;20357;-88
2021/12/06 14:44:39;;;;;;;20.87;13.27;;;4.70;91.40;;;;;;5081546;28;20225;-87
2021/12/06 14:47:10;;;;;;;16.27;11.23;;;4.60;92.20;;;;;;5069294;28;20231;-90
2021/12/06 14:49:40;;;;;;;19.73;12.10;;;4.50;93.20;;;;;;5072876;28;20637;-86
2021/12/06 14:52:15;;;;;;;17.00;11.50;;;4.50;92.70;;;;;;5077023;28;20735;-89
2021/12/06 14:55:01;;;;;;;18.83;12.50;;;4.50;92.70;;;;;;5080104;28;20200;-87
2021/12/06 14:57:29;;;;;;;16.53;11.10;;;4.40;92.30;;;;;;5057089;28;20351;-85
2021/12/06 14:59:57;;;;;;;20.07;11.70;;;4.50;92.80;;;;;;5093979;28;20193;-88
2021/12/06 15:02:25;;;;;;;17.80;11.83;;;4.50;92.70;;;;;;5077753;28;20229;-83
2021/12/06 15:05:01;;;;;;;19.30;12.63;;;4.50;92.50;;;;;;5077815;28;20195;-86
2021/12/06 15:07:28;;;;;;;18.30;12.40;;;4.60;92.60;;;;;;5078561;28;20235;-85
2021/12/06 15:09:55;;;;;;;16.73;11.67;;;4.50;92.40;;;;;;5078527;28;20644;-84
2021/12/06 15:12:23;;;;;;;15.50;11.47;;;4.50;92.90;;;;;;5078354;28;20248;-84
2021/12/06 15:14:50;;;;;;;15.53;11.17;;;4.30;92.00;;;;;;5075367;28;20645;-86
2021/12/06 15:17:19;;;;;;;15.67;11.80;;;4.20;92.40;;;;;;5073225;28;20581;-83
2021/12/06 15:19:49;;;;;;;17.83;11.87;;;4.10;92.60;;;;;;5076885;28;20201;-85
2021/12/06 15:22:16;;;;;;;18.37;12.27;;;4.20;93.70;;;;;;5067847;28;20308;-85
2021/12/06 15:24:43;;;;;;;16.90;12.00;;;4.20;92.70;;;;;;5074903;28;20201;-86
2021/12/06 15:27:11;;;;;;;18.63;11.57;;;4.10;92.80;;;;;;5080986;28;20635;-85
2021/12/06 15:29:43;;;;;;;18.13;11.57;;;3.80;92.90;;;;;;5087840;28;20244;-88
2021/12/06 15:32:14;;;;;;;14.50;9.73;;;3.80;93.10;;;;;;5085732;28;20221;-85
2021/12/06 15:34:45;;;;;;;15.07;10.97;;;3.70;94.10;;;;;;5077979;28;20197;-87
2021/12/06 15:37:12;;;;;;;17.47;11.10;;;3.70;93.80;;;;;;5090180;28;20230;-85
2021/12/06 15:39:43;;;;;;;17.10;9.93;;;3.60;93.20;;;;;;5076737;28;20668;-84
2021/12/06 15:42:14;;;;;;;18.50;10.70;;;3.60;94.00;;;;;;5073072;28;20300;-87
2021/12/06 15:44:43;;;;;;;17.07;11.40;;;3.40;93.30;;;;;;5207075;22;20330;-88
2021/12/06 15:47:13;;;;;;;14.43;10.47;;;3.40;93.70;;;;;;5036757;28;20353;-84
2021/12/06 15:49:48;;;;;;;14.63;10.60;;;3.40;93.70;;;;;;5039228;28;20198;-84
2021/12/06 15:52:19;;;;;;;16.07;10.57;;;3.20;93.80;;;;;;5018505;28;20239;-84
2021/12/06 15:55:10;;;;;;;16.90;10.77;;;3.20;94.20;;;;;;5018574;28;20194;-84
2021/12/06 15:57:41;;;;;;;14.17;9.73;;;3.20;93.90;;;;;;5006865;28;20234;-87
2021/12/06 16:00:14;;;;;;;16.23;10.53;;;3.20;94.20;;;;;;5020263;28;20202;-86
2021/12/06 16:02:44;;;;;;;15.47;9.60;;;3.20;94.20;;;;;;5010562;28;20234;-87
2021/12/06 16:05:16;;;;;;;15.03;10.40;;;3.30;94.00;;;;;;5012001;28;20226;-83
2021/12/06 16:07:51;;;;;;;14.03;10.10;;;3.40;93.60;;;;;;5023279;28;20234;-85
2021/12/06 16:10:21;;;;;;;15.87;11.03;;;3.40;93.70;;;;;;5011747;28;20219;-85
2021/12/06 16:12:53;;;;;;;13.87;9.53;;;3.30;93.60;;;;;;5032833;28;20222;-85
2021/12/06 16:15:24;;;;;;;16.33;10.73;;;3.30;94.00;;;;;;5040788;28;20198;-84
2021/12/06 16:17:55;;;;;;;17.97;10.00;;;3.40;93.80;;;;;;5020148;28;20211;-86
2021/12/06 16:20:24;;;;;;;15.97;10.40;;;3.30;94.10;;;;;;5028191;28;20199;-84
2021/12/06 16:22:52;;;;;;;17.70;10.30;;;3.40;94.10;;;;;;5036285;28;20195;-84
2021/12/06 16:25:19;;;;;;;14.97;9.73;;;3.40;93.90;;;;;;5042490;28;20208;-83
2021/12/06 16:28:01;;;;;;;15.07;9.20;;;3.30;94.00;;;;;;5039367;28;20215;-86
2021/12/06 16:30:28;;;;;;;15.87;9.47;;;3.30;93.50;;;;;;5016482;28;20631;-85
2021/12/06 16:32:56;;;;;;;14.70;9.23;;;3.40;93.10;;;;;;5016237;28;20246;-85
2021/12/06 16:36:16;;;;;;;15.13;9.40;;;3.40;92.90;;;;;;5017375;28;20200;-84
2021/12/06 16:38:43;;;;;;;13.10;8.70;;;3.40;92.90;;;;;;5013688;28;20215;-85
2021/12/06 16:44:43;;;;;;;13.47;9.33;;;3.50;92.80;;;;;;5008324;28;20671;-85
2021/12/06 16:47:13;;;;;;;13.63;9.50;;;3.30;93.00;;;;;;5019902;28;20310;-84
2021/12/06 16:49:56;;;;;;;12.27;8.23;;;3.40;93.60;;;;;;5016446;28;20227;-83
2021/12/06 16:53:00;;;;;;;14.43;8.83;;;3.40;93.10;;;;;;5014266;28;20253;-83
2021/12/06 16:58:52;;;;;;;12.63;8.37;;;3.30;92.50;;;;;;5015060;28;20245;-83
2021/12/06 17:01:22;;;;;;;13.20;8.53;;;3.30;92.20;;;;;;5014495;28;20268;-86
2021/12/06 17:03:53;;;;;;;11.50;7.67;;;3.30;92.40;;;;;;5023197;28;20670;-84
2021/12/06 17:06:25;;;;;;;15.57;8.57;;;3.30;92.30;;;;;;5016313;28;20729;-85
2021/12/06 17:08:57;;;;;;;11.40;8.30;;;3.20;92.00;;;;;;5007477;28;20205;-86
2021/12/06 17:11:26;;;;;;;13.77;8.50;;;3.10;92.10;;;;;;5013865;28;21997;-84
2021/12/06 17:13:56;;;;;;;13.37;8.80;;;3.10;92.20;;;;;;5011965;28;20203;-84
2021/12/06 17:16:26;;;;;;;14.73;8.40;;;3.20;92.40;;;;;;5030186;28;20227;-87
2021/12/06 17:18:54;;;;;;;14.60;9.53;;;3.20;92.40;;;;;;5031491;28;20230;-84
2021/12/06 17:21:26;;;;;;;11.87;8.53;;;3.20;92.40;;;;;;5018404;28;20227;-86
2021/12/06 17:23:55;;;;;;;13.20;8.60;;;3.20;92.30;;;;;;5015222;28;20669;-84